sensor_id;sensor_type;location;lat;lon;timestamp;temperature;humidity
13561;DHT22;6852;51.686;5.314;2023-04-03T00:00:20;5.50;99.90
13561;DHT22;6852;51.686;5.314;2023-04-03T00:02:47;5.50;99.90
13561;DHT22;6852;51.686;5.314;2023-04-03T00:05:14;5.40;99.90
13561;DHT22;6852;51.686;5.314;2023-04-03T00:07:41;5.40;99.90
13561;DHT22;6852;51.686;5.314;2023-04-03T00:10:08;5.40;99.90
13561;DHT22;6852;51.686;5.314;2023-04-03T00:12:35;5.40;99.90
13561;DHT22;6852;51.686;5.314;2023-04-03T00:15:02;5.40;99.90
13561;DHT22;6852;51.686;5.314;2023-04-03T00:17:29;5.20;99.90
13561;DHT22;6852;51.686;5.314;2023-04-03T00:19:56;5.30;99.90
13561;DHT22;6852;51.686;5.314;2023-04-03T00:22:23;5.30;99.90
13561;DHT22;6852;51.686;5.314;2023-04-03T00:24:50;5.30;99.90
13561;DHT22;6852;51.686;5.314;2023-04-03T00:27:17;5.30;99.90
13561;DHT22;6852;51.686;5.314;2023-04-03T00:29:44;5.30;99.90
13561;DHT22;6852;51.686;5.314;2023-04-03T00:32:10;5.20;99.90
13561;DHT22;6852;51.686;5.314;2023-04-03T00:34:37;5.20;99.90
13561;DHT22;6852;51.686;5.314;2023-04-03T00:37:04;5.30;99.90
13561;DHT22;6852;51.686;5.314;2023-04-03T00:39:31;5.20;99.90
13561;DHT22;6852;51.686;5.314;2023-04-03T00:41:59;5.20;99.90
13561;DHT22;6852;51.686;5.314;2023-04-03T00:47:03;5.10;99.90
13561;DHT22;6852;51.686;5.314;2023-04-03T00:49:32;5.10;99.90
13561;DHT22;6852;51.686;5.314;2023-04-03T00:51:59;5.10;99.90
13561;DHT22;6852;51.686;5.314;2023-04-03T00:54:26;5.10;99.90
13561;DHT22;6852;51.686;5.314;2023-04-03T00:56:55;5.10;99.90
13561;DHT22;6852;51.686;5.314;2023-04-03T00:59:31;5.00;99.90
13561;DHT22;6852;51.686;5.314;2023-04-03T01:01:59;4.90;99.90
13561;DHT22;6852;51.686;5.314;2023-04-03T01:04:33;4.90;99.90
13561;DHT22;6852;51.686;5.314;2023-04-03T01:07:26;5.00;99.90
13561;DHT22;6852;51.686;5.314;2023-04-03T01:09:58;5.00;99.90
13561;DHT22;6852;51.686;5.314;2023-04-03T01:12:28;4.90;99.90
13561;DHT22;6852;51.686;5.314;2023-04-03T01:14:59;4.90;99.90
13561;DHT22;6852;51.686;5.314;2023-04-03T01:17:43;4.90;99.90
13561;DHT22;6852;51.686;5.314;2023-04-03T01:25:57;4.90;99.90
13561;DHT22;6852;51.686;5.314;2023-04-03T01:28:28;4.80;99.90
13561;DHT22;6852;51.686;5.314;2023-04-03T01:33:34;4.80;99.90
13561;DHT22;6852;51.686;5.314;2023-04-03T01:36:02;4.60;99.90
13561;DHT22;6852;51.686;5.314;2023-04-03T01:38:30;4.80;99.90
13561;DHT22;6852;51.686;5.314;2023-04-03T01:40:57;4.70;99.90
13561;DHT22;6852;51.686;5.314;2023-04-03T01:43:24;4.60;99.90
13561;DHT22;6852;51.686;5.314;2023-04-03T01:45:51;4.60;99.90
13561;DHT22;6852;51.686;5.314;2023-04-03T01:48:19;4.70;99.90
13561;DHT22;6852;51.686;5.314;2023-04-03T01:50:46;4.70;99.90
13561;DHT22;6852;51.686;5.314;2023-04-03T01:53:13;4.60;99.90
13561;DHT22;6852;51.686;5.314;2023-04-03T01:55:40;4.60;99.90
13561;DHT22;6852;51.686;5.314;2023-04-03T01:58:07;4.60;99.90
13561;DHT22;6852;51.686;5.314;2023-04-03T02:00:34;4.60;99.90
13561;DHT22;6852;51.686;5.314;2023-04-03T02:03:02;4.60;99.90
13561;DHT22;6852;51.686;5.314;2023-04-03T02:05:29;4.50;99.90
13561;DHT22;6852;51.686;5.314;2023-04-03T02:07:56;4.50;99.90
13561;DHT22;6852;51.686;5.314;2023-04-03T02:10:23;4.50;99.90
13561;DHT22;6852;51.686;5.314;2023-04-03T02:12:50;4.50;99.90
13561;DHT22;6852;51.686;5.314;2023-04-03T02:15:17;4.50;99.90
13561;DHT22;6852;51.686;5.314;2023-04-03T02:17:44;4.50;99.90
13561;DHT22;6852;51.686;5.314;2023-04-03T02:20:11;4.40;99.90
13561;DHT22;6852;51.686;5.314;2023-04-03T02:22:38;4.50;99.90
13561;DHT22;6852;51.686;5.314;2023-04-03T02:25:05;4.50;99.90
13561;DHT22;6852;51.686;5.314;2023-04-03T02:27:32;4.40;99.90
13561;DHT22;6852;51.686;5.314;2023-04-03T02:29:59;4.40;99.90
13561;DHT22;6852;51.686;5.314;2023-04-03T02:32:26;4.50;99.90
13561;DHT22;6852;51.686;5.314;2023-04-03T02:34:53;4.50;99.90
13561;DHT22;6852;51.686;5.314;2023-04-03T02:37:19;4.50;99.90
13561;DHT22;6852;51.686;5.314;2023-04-03T02:39:47;4.50;99.90
13561;DHT22;6852;51.686;5.314;2023-04-03T02:42:14;4.50;99.90
13561;DHT22;6852;51.686;5.314;2023-04-03T02:44:41;4.40;99.90
13561;DHT22;6852;51.686;5.314;2023-04-03T02:47:08;4.40;99.90
13561;DHT22;6852;51.686;5.314;2023-04-03T02:49:35;4.40;99.90
13561;DHT22;6852;51.686;5.314;2023-04-03T02:52:02;4.40;99.90
13561;DHT22;6852;51.686;5.314;2023-04-03T02:54:28;4.40;99.90
13561;DHT22;6852;51.686;5.314;2023-04-03T02:56:58;4.40;99.90
13561;DHT22;6852;51.686;5.314;2023-04-03T02:59:25;4.40;99.90
13561;DHT22;6852;51.686;5.314;2023-04-03T03:01:52;4.50;99.90
13561;DHT22;6852;51.686;5.314;2023-04-03T03:04:19;4.40;99.90
13561;DHT22;6852;51.686;5.314;2023-04-03T03:06:46;4.30;99.90
13561;DHT22;6852;51.686;5.314;2023-04-03T03:09:13;4.40;99.90
13561;DHT22;6852;51.686;5.314;2023-04-03T03:11:40;4.40;99.90
13561;DHT22;6852;51.686;5.314;2023-04-03T03:14:07;4.40;99.90
13561;DHT22;6852;51.686;5.314;2023-04-03T03:16:34;4.30;99.90
13561;DHT22;6852;51.686;5.314;2023-04-03T03:19:01;4.30;99.90
13561;DHT22;6852;51.686;5.314;2023-04-03T03:21:28;4.40;99.90
13561;DHT22;6852;51.686;5.314;2023-04-03T03:23:55;4.30;99.90
13561;DHT22;6852;51.686;5.314;2023-04-03T03:26:22;4.40;99.90
13561;DHT22;6852;51.686;5.314;2023-04-03T03:28:48;4.40;99.90
13561;DHT22;6852;51.686;5.314;2023-04-03T03:31:16;4.40;99.90
13561;DHT22;6852;51.686;5.314;2023-04-03T03:33:42;4.40;99.90
13561;DHT22;6852;51.686;5.314;2023-04-03T03:36:09;4.30;99.90
13561;DHT22;6852;51.686;5.314;2023-04-03T03:38:37;4.30;99.90
13561;DHT22;6852;51.686;5.314;2023-04-03T03:41:04;4.30;99.90
13561;DHT22;6852;51.686;5.314;2023-04-03T03:43:31;4.30;99.90
13561;DHT22;6852;51.686;5.314;2023-04-03T03:45:58;4.20;99.90
13561;DHT22;6852;51.686;5.314;2023-04-03T03:48:25;4.30;99.90
13561;DHT22;6852;51.686;5.314;2023-04-03T03:50:51;4.20;99.90
13561;DHT22;6852;51.686;5.314;2023-04-03T03:53:18;4.20;99.90
13561;DHT22;6852;51.686;5.314;2023-04-03T03:55:45;4.10;99.90
13561;DHT22;6852;51.686;5.314;2023-04-03T03:58:12;4.20;99.90
13561;DHT22;6852;51.686;5.314;2023-04-03T04:00:39;4.10;99.90
13561;DHT22;6852;51.686;5.314;2023-04-03T04:03:06;4.00;99.90
13561;DHT22;6852;51.686;5.314;2023-04-03T04:05:33;4.10;99.90
13561;DHT22;6852;51.686;5.314;2023-04-03T04:08:00;4.20;99.90
13561;DHT22;6852;51.686;5.314;2023-04-03T04:10:27;4.10;99.90
13561;DHT22;6852;51.686;5.314;2023-04-03T04:12:54;4.10;99.90
13561;DHT22;6852;51.686;5.314;2023-04-03T04:15:24;4.20;99.90
13561;DHT22;6852;51.686;5.314;2023-04-03T04:17:52;4.20;99.90
13561;DHT22;6852;51.686;5.314;2023-04-03T04:20:20;4.10;99.90
13561;DHT22;6852;51.686;5.314;2023-04-03T04:22:47;4.10;99.90
13561;DHT22;6852;51.686;5.314;2023-04-03T04:25:14;4.10;99.90
13561;DHT22;6852;51.686;5.314;2023-04-03T04:27:41;4.10;99.90
13561;DHT22;6852;51.686;5.314;2023-04-03T04:30:08;4.10;99.90
13561;DHT22;6852;51.686;5.314;2023-04-03T04:32:35;4.10;99.90
13561;DHT22;6852;51.686;5.314;2023-04-03T04:35:02;4.10;99.90
13561;DHT22;6852;51.686;5.314;2023-04-03T04:37:30;4.00;99.90
13561;DHT22;6852;51.686;5.314;2023-04-03T04:39:57;4.10;99.90
13561;DHT22;6852;51.686;5.314;2023-04-03T04:42:24;4.00;99.90
13561;DHT22;6852;51.686;5.314;2023-04-03T04:44:51;3.90;99.90
13561;DHT22;6852;51.686;5.314;2023-04-03T04:47:18;3.90;99.90
13561;DHT22;6852;51.686;5.314;2023-04-03T04:49:45;3.80;99.90
13561;DHT22;6852;51.686;5.314;2023-04-03T04:52:14;3.80;99.90
13561;DHT22;6852;51.686;5.314;2023-04-03T04:54:40;3.70;99.90
13561;DHT22;6852;51.686;5.314;2023-04-03T04:57:07;3.80;99.90
13561;DHT22;6852;51.686;5.314;2023-04-03T04:59:34;3.80;99.90
13561;DHT22;6852;51.686;5.314;2023-04-03T05:02:01;3.70;99.90
13561;DHT22;6852;51.686;5.314;2023-04-03T05:04:28;3.70;99.90
13561;DHT22;6852;51.686;5.314;2023-04-03T05:06:56;3.60;99.90
13561;DHT22;6852;51.686;5.314;2023-04-03T05:09:23;3.60;99.90
13561;DHT22;6852;51.686;5.314;2023-04-03T05:11:50;3.60;99.90
13561;DHT22;6852;51.686;5.314;2023-04-03T05:14:17;3.60;99.90
13561;DHT22;6852;51.686;5.314;2023-04-03T05:16:44;3.50;99.90
13561;DHT22;6852;51.686;5.314;2023-04-03T05:19:10;3.50;99.90
13561;DHT22;6852;51.686;5.314;2023-04-03T05:21:37;3.60;99.90
13561;DHT22;6852;51.686;5.314;2023-04-03T05:24:05;3.60;99.90
13561;DHT22;6852;51.686;5.314;2023-04-03T05:26:35;3.70;99.90
13561;DHT22;6852;51.686;5.314;2023-04-03T05:29:03;3.70;99.90
13561;DHT22;6852;51.686;5.314;2023-04-03T05:31:30;3.70;99.90
13561;DHT22;6852;51.686;5.314;2023-04-03T05:33:58;3.70;99.90
13561;DHT22;6852;51.686;5.314;2023-04-03T05:36:25;3.80;99.90
13561;DHT22;6852;51.686;5.314;2023-04-03T05:38:52;3.70;99.90
13561;DHT22;6852;51.686;5.314;2023-04-03T05:41:20;3.70;99.90
13561;DHT22;6852;51.686;5.314;2023-04-03T05:43:49;3.70;99.90
13561;DHT22;6852;51.686;5.314;2023-04-03T05:46:18;3.70;99.90
13561;DHT22;6852;51.686;5.314;2023-04-03T05:48:45;3.70;99.90
13561;DHT22;6852;51.686;5.314;2023-04-03T05:51:18;3.70;99.90
13561;DHT22;6852;51.686;5.314;2023-04-03T05:53:46;3.70;99.90
13561;DHT22;6852;51.686;5.314;2023-04-03T05:56:13;3.80;99.90
13561;DHT22;6852;51.686;5.314;2023-04-03T05:58:41;3.80;99.90
13561;DHT22;6852;51.686;5.314;2023-04-03T06:01:07;3.90;99.90
13561;DHT22;6852;51.686;5.314;2023-04-03T06:03:35;3.80;99.90
13561;DHT22;6852;51.686;5.314;2023-04-03T06:06:05;3.80;99.90
13561;DHT22;6852;51.686;5.314;2023-04-03T06:08:32;3.80;99.90
13561;DHT22;6852;51.686;5.314;2023-04-03T06:11:00;3.80;99.90
13561;DHT22;6852;51.686;5.314;2023-04-03T06:13:28;3.80;99.90
13561;DHT22;6852;51.686;5.314;2023-04-03T06:15:56;3.80;99.90
13561;DHT22;6852;51.686;5.314;2023-04-03T06:18:23;3.80;99.90
13561;DHT22;6852;51.686;5.314;2023-04-03T06:20:50;3.80;99.90
13561;DHT22;6852;51.686;5.314;2023-04-03T06:23:17;3.80;99.90
13561;DHT22;6852;51.686;5.314;2023-04-03T06:25:44;3.80;99.90
13561;DHT22;6852;51.686;5.314;2023-04-03T06:28:11;3.90;99.90
13561;DHT22;6852;51.686;5.314;2023-04-03T06:30:38;3.90;99.90
13561;DHT22;6852;51.686;5.314;2023-04-03T06:33:06;4.10;99.90
13561;DHT22;6852;51.686;5.314;2023-04-03T06:35:33;4.30;99.90
13561;DHT22;6852;51.686;5.314;2023-04-03T06:38:01;4.50;99.90
13561;DHT22;6852;51.686;5.314;2023-04-03T06:40:30;4.60;99.90
13561;DHT22;6852;51.686;5.314;2023-04-03T06:42:57;4.70;99.90
13561;DHT22;6852;51.686;5.314;2023-04-03T06:45:24;4.80;99.90
13561;DHT22;6852;51.686;5.314;2023-04-03T06:47:52;4.90;99.90
13561;DHT22;6852;51.686;5.314;2023-04-03T06:50:19;5.20;99.90
13561;DHT22;6852;51.686;5.314;2023-04-03T06:52:46;5.40;99.90
13561;DHT22;6852;51.686;5.314;2023-04-03T06:55:13;5.60;99.90
13561;DHT22;6852;51.686;5.314;2023-04-03T06:57:40;5.70;99.90
13561;DHT22;6852;51.686;5.314;2023-04-03T07:00:07;5.80;99.90
13561;DHT22;6852;51.686;5.314;2023-04-03T07:02:35;5.70;99.90
13561;DHT22;6852;51.686;5.314;2023-04-03T07:05:03;5.80;99.90
13561;DHT22;6852;51.686;5.314;2023-04-03T07:07:30;6.00;99.90
13561;DHT22;6852;51.686;5.314;2023-04-03T07:09:57;5.80;99.90
13561;DHT22;6852;51.686;5.314;2023-04-03T07:12:24;5.80;99.90
13561;DHT22;6852;51.686;5.314;2023-04-03T07:14:51;5.90;99.90
13561;DHT22;6852;51.686;5.314;2023-04-03T07:17:17;5.80;99.90
13561;DHT22;6852;51.686;5.314;2023-04-03T07:19:44;5.80;99.90
13561;DHT22;6852;51.686;5.314;2023-04-03T07:22:12;6.10;99.90
13561;DHT22;6852;51.686;5.314;2023-04-03T07:24:39;6.30;99.90
13561;DHT22;6852;51.686;5.314;2023-04-03T07:27:06;6.20;99.90
13561;DHT22;6852;51.686;5.314;2023-04-03T07:29:35;6.20;99.90
13561;DHT22;6852;51.686;5.314;2023-04-03T07:32:02;6.30;99.90
13561;DHT22;6852;51.686;5.314;2023-04-03T07:34:29;6.60;99.90
13561;DHT22;6852;51.686;5.314;2023-04-03T07:36:57;6.50;99.90
13561;DHT22;6852;51.686;5.314;2023-04-03T07:39:24;6.70;99.90
13561;DHT22;6852;51.686;5.314;2023-04-03T07:41:52;6.80;99.90
13561;DHT22;6852;51.686;5.314;2023-04-03T07:44:19;7.00;99.90
13561;DHT22;6852;51.686;5.314;2023-04-03T07:46:45;6.90;99.90
13561;DHT22;6852;51.686;5.314;2023-04-03T07:49:14;7.00;99.90
13561;DHT22;6852;51.686;5.314;2023-04-03T07:51:40;7.20;99.90
13561;DHT22;6852;51.686;5.314;2023-04-03T07:54:08;7.30;99.90
13561;DHT22;6852;51.686;5.314;2023-04-03T07:56:35;7.10;99.90
13561;DHT22;6852;51.686;5.314;2023-04-03T07:59:05;7.60;99.90
13561;DHT22;6852;51.686;5.314;2023-04-03T08:01:34;7.50;99.90
13561;DHT22;6852;51.686;5.314;2023-04-03T08:04:01;7.30;99.90
13561;DHT22;6852;51.686;5.314;2023-04-03T08:06:30;7.30;99.90
13561;DHT22;6852;51.686;5.314;2023-04-03T08:09:12;7.60;99.90
13561;DHT22;6852;51.686;5.314;2023-04-03T08:11:41;7.50;99.90
13561;DHT22;6852;51.686;5.314;2023-04-03T08:14:08;7.80;99.90
13561;DHT22;6852;51.686;5.314;2023-04-03T08:16:37;8.00;99.90
13561;DHT22;6852;51.686;5.314;2023-04-03T08:19:04;8.20;99.90
13561;DHT22;6852;51.686;5.314;2023-04-03T08:21:37;8.00;99.90
13561;DHT22;6852;51.686;5.314;2023-04-03T08:24:06;7.80;99.90
13561;DHT22;6852;51.686;5.314;2023-04-03T08:26:33;8.30;99.90
13561;DHT22;6852;51.686;5.314;2023-04-03T08:29:00;8.60;99.90
13561;DHT22;6852;51.686;5.314;2023-04-03T08:31:27;8.80;99.90
13561;DHT22;6852;51.686;5.314;2023-04-03T08:33:57;8.90;99.90
13561;DHT22;6852;51.686;5.314;2023-04-03T08:36:26;8.80;99.90
13561;DHT22;6852;51.686;5.314;2023-04-03T08:38:54;9.10;99.90
13561;DHT22;6852;51.686;5.314;2023-04-03T08:41:37;9.40;99.90
13561;DHT22;6852;51.686;5.314;2023-04-03T08:51:51;10.00;99.90
13561;DHT22;6852;51.686;5.314;2023-04-03T08:54:27;10.00;99.90
13561;DHT22;6852;51.686;5.314;2023-04-03T08:56:55;10.40;99.90
13561;DHT22;6852;51.686;5.314;2023-04-03T08:59:28;10.90;99.90
13561;DHT22;6852;51.686;5.314;2023-04-03T09:01:58;11.10;99.90
13561;DHT22;6852;51.686;5.314;2023-04-03T09:04:26;11.00;99.90
13561;DHT22;6852;51.686;5.314;2023-04-03T09:06:57;10.70;99.90
13561;DHT22;6852;51.686;5.314;2023-04-03T09:09:41;10.50;99.90
13561;DHT22;6852;51.686;5.314;2023-04-03T09:15:15;10.80;99.90
13561;DHT22;6852;51.686;5.314;2023-04-03T09:18:03;10.90;99.90
13561;DHT22;6852;51.686;5.314;2023-04-03T09:20:47;11.20;99.90
13561;DHT22;6852;51.686;5.314;2023-04-03T09:23:26;10.70;99.90
13561;DHT22;6852;51.686;5.314;2023-04-03T09:26:02;11.20;99.90
13561;DHT22;6852;51.686;5.314;2023-04-03T09:28:37;11.20;99.90
13561;DHT22;6852;51.686;5.314;2023-04-03T09:31:20;11.80;99.90
13561;DHT22;6852;51.686;5.314;2023-04-03T09:33:54;11.30;99.90
13561;DHT22;6852;51.686;5.314;2023-04-03T09:36:40;11.10;99.90
13561;DHT22;6852;51.686;5.314;2023-04-03T09:39:14;10.60;99.90
13561;DHT22;6852;51.686;5.314;2023-04-03T09:41:42;11.10;99.90
13561;DHT22;6852;51.686;5.314;2023-04-03T09:44:24;11.10;99.90
13561;DHT22;6852;51.686;5.314;2023-04-03T09:46:51;10.60;99.90
13561;DHT22;6852;51.686;5.314;2023-04-03T09:49:19;10.60;99.90
13561;DHT22;6852;51.686;5.314;2023-04-03T09:51:46;10.60;99.90
13561;DHT22;6852;51.686;5.314;2023-04-03T09:57:07;10.80;99.90
13561;DHT22;6852;51.686;5.314;2023-04-03T09:59:35;10.70;99.90
13561;DHT22;6852;51.686;5.314;2023-04-03T10:02:21;10.50;99.90
13561;DHT22;6852;51.686;5.314;2023-04-03T10:04:49;10.30;99.90
13561;DHT22;6852;51.686;5.314;2023-04-03T10:07:38;10.10;99.90
13561;DHT22;6852;51.686;5.314;2023-04-03T10:10:20;10.40;99.90
13561;DHT22;6852;51.686;5.314;2023-04-03T10:13:07;10.50;99.90
13561;DHT22;6852;51.686;5.314;2023-04-03T10:15:46;10.40;99.90
13561;DHT22;6852;51.686;5.314;2023-04-03T10:21:33;10.40;99.90
13561;DHT22;6852;51.686;5.314;2023-04-03T10:26:50;10.90;99.90
13561;DHT22;6852;51.686;5.314;2023-04-03T10:34:47;10.90;99.90
13561;DHT22;6852;51.686;5.314;2023-04-03T10:37:35;10.90;99.90
13561;DHT22;6852;51.686;5.314;2023-04-03T10:43:36;11.40;99.90
13561;DHT22;6852;51.686;5.314;2023-04-03T10:49:05;11.90;99.90
13561;DHT22;6852;51.686;5.314;2023-04-03T10:51:45;11.70;99.90
13561;DHT22;6852;51.686;5.314;2023-04-03T10:54:28;11.40;99.90
13561;DHT22;6852;51.686;5.314;2023-04-03T10:57:01;11.30;99.90
13561;DHT22;6852;51.686;5.314;2023-04-03T11:02:25;11.10;99.90
13561;DHT22;6852;51.686;5.314;2023-04-03T11:05:13;11.30;99.90
13561;DHT22;6852;51.686;5.314;2023-04-03T11:07:46;11.30;99.90
13561;DHT22;6852;51.686;5.314;2023-04-03T11:10:35;11.80;99.90
13561;DHT22;6852;51.686;5.314;2023-04-03T11:13:13;11.20;99.90
13561;DHT22;6852;51.686;5.314;2023-04-03T11:15:40;11.50;99.90
13561;DHT22;6852;51.686;5.314;2023-04-03T11:18:14;11.40;99.90
13561;DHT22;6852;51.686;5.314;2023-04-03T11:20:57;11.50;99.90
13561;DHT22;6852;51.686;5.314;2023-04-03T11:23:26;11.40;99.90
13561;DHT22;6852;51.686;5.314;2023-04-03T11:26:19;11.40;99.90
13561;DHT22;6852;51.686;5.314;2023-04-03T11:28:58;11.20;99.90
13561;DHT22;6852;51.686;5.314;2023-04-03T11:31:42;11.10;99.90
13561;DHT22;6852;51.686;5.314;2023-04-03T11:34:21;11.10;99.90
13561;DHT22;6852;51.686;5.314;2023-04-03T11:36:56;11.00;99.90
13561;DHT22;6852;51.686;5.314;2023-04-03T11:39:33;11.00;99.90
13561;DHT22;6852;51.686;5.314;2023-04-03T11:50:48;11.80;99.90
13561;DHT22;6852;51.686;5.314;2023-04-03T11:56:01;12.20;99.90
13561;DHT22;6852;51.686;5.314;2023-04-03T11:58:35;11.90;99.90
13561;DHT22;6852;51.686;5.314;2023-04-03T12:01:11;12.00;99.90
13561;DHT22;6852;51.686;5.314;2023-04-03T12:21:17;12.70;99.90
13561;DHT22;6852;51.686;5.314;2023-04-03T12:26:44;12.10;99.90
13561;DHT22;6852;51.686;5.314;2023-04-03T12:29:20;12.20;99.90
13561;DHT22;6852;51.686;5.314;2023-04-03T12:40:35;13.60;99.90
13561;DHT22;6852;51.686;5.314;2023-04-03T12:51:39;13.80;99.90
13561;DHT22;6852;51.686;5.314;2023-04-03T12:57:16;12.70;99.90
13561;DHT22;6852;51.686;5.314;2023-04-03T12:59:44;12.70;99.90
13561;DHT22;6852;51.686;5.314;2023-04-03T13:02:32;13.30;99.90
13561;DHT22;6852;51.686;5.314;2023-04-03T13:05:07;13.00;99.90
13561;DHT22;6852;51.686;5.314;2023-04-03T13:07:36;13.20;99.90
13561;DHT22;6852;51.686;5.314;2023-04-03T13:12:45;12.60;99.90
13561;DHT22;6852;51.686;5.314;2023-04-03T13:15:25;12.30;99.90
13561;DHT22;6852;51.686;5.314;2023-04-03T13:17:53;13.20;99.90
13561;DHT22;6852;51.686;5.314;2023-04-03T13:20:32;13.10;99.90
13561;DHT22;6852;51.686;5.314;2023-04-03T13:23:07;12.70;99.90
13561;DHT22;6852;51.686;5.314;2023-04-03T13:25:41;13.00;99.90
13561;DHT22;6852;51.686;5.314;2023-04-03T13:28:17;13.20;99.90
13561;DHT22;6852;51.686;5.314;2023-04-03T13:30:59;13.30;99.90
13561;DHT22;6852;51.686;5.314;2023-04-03T13:33:29;13.50;99.90
13561;DHT22;6852;51.686;5.314;2023-04-03T13:36:05;13.30;99.90
13561;DHT22;6852;51.686;5.314;2023-04-03T13:38:33;13.30;99.90
13561;DHT22;6852;51.686;5.314;2023-04-03T13:41:04;13.70;99.90
13561;DHT22;6852;51.686;5.314;2023-04-03T13:43:34;12.90;99.90
13561;DHT22;6852;51.686;5.314;2023-04-03T13:48:46;13.20;99.90
13561;DHT22;6852;51.686;5.314;2023-04-03T13:53:57;12.70;99.90
13561;DHT22;6852;51.686;5.314;2023-04-03T13:56:37;12.70;99.90
13561;DHT22;6852;51.686;5.314;2023-04-03T14:01:55;13.30;99.90
13561;DHT22;6852;51.686;5.314;2023-04-03T14:07:12;12.60;99.90
13561;DHT22;6852;51.686;5.314;2023-04-03T14:09:39;12.70;99.90
13561;DHT22;6852;51.686;5.314;2023-04-03T14:12:25;12.70;99.90
13561;DHT22;6852;51.686;5.314;2023-04-03T14:15:03;12.90;99.90
13561;DHT22;6852;51.686;5.314;2023-04-03T14:17:31;13.20;99.90
13561;DHT22;6852;51.686;5.314;2023-04-03T14:19:58;12.90;99.90
13561;DHT22;6852;51.686;5.314;2023-04-03T14:22:30;13.00;99.90
13561;DHT22;6852;51.686;5.314;2023-04-03T14:24:58;12.50;99.90
13561;DHT22;6852;51.686;5.314;2023-04-03T14:27:37;12.50;99.90
13561;DHT22;6852;51.686;5.314;2023-04-03T14:30:09;12.50;99.90
13561;DHT22;6852;51.686;5.314;2023-04-03T14:32:36;12.40;99.90
13561;DHT22;6852;51.686;5.314;2023-04-03T14:35:04;12.10;99.90
13561;DHT22;6852;51.686;5.314;2023-04-03T14:37:31;12.20;99.90
13561;DHT22;6852;51.686;5.314;2023-04-03T14:40:11;12.20;99.90
13561;DHT22;6852;51.686;5.314;2023-04-03T14:42:43;12.30;99.90
13561;DHT22;6852;51.686;5.314;2023-04-03T14:45:12;11.70;99.90
13561;DHT22;6852;51.686;5.314;2023-04-03T14:47:46;11.90;99.90
13561;DHT22;6852;51.686;5.314;2023-04-03T14:50:17;11.70;99.90
13561;DHT22;6852;51.686;5.314;2023-04-03T14:52:44;12.00;99.90
13561;DHT22;6852;51.686;5.314;2023-04-03T14:55:15;12.00;99.90
13561;DHT22;6852;51.686;5.314;2023-04-03T14:57:43;12.40;99.90
13561;DHT22;6852;51.686;5.314;2023-04-03T15:00:16;12.20;99.90
13561;DHT22;6852;51.686;5.314;2023-04-03T15:02:44;12.10;99.90
13561;DHT22;6852;51.686;5.314;2023-04-03T15:05:12;11.60;99.90
13561;DHT22;6852;51.686;5.314;2023-04-03T15:07:52;11.50;99.90
13561;DHT22;6852;51.686;5.314;2023-04-03T15:10:25;11.70;99.90
13561;DHT22;6852;51.686;5.314;2023-04-03T15:12:53;11.80;99.90
13561;DHT22;6852;51.686;5.314;2023-04-03T15:15:21;11.50;99.90
13561;DHT22;6852;51.686;5.314;2023-04-03T15:17:54;11.20;99.90
13561;DHT22;6852;51.686;5.314;2023-04-03T15:20:25;11.50;99.90
13561;DHT22;6852;51.686;5.314;2023-04-03T15:22:53;11.60;99.90
13561;DHT22;6852;51.686;5.314;2023-04-03T15:25:20;11.50;99.90
13561;DHT22;6852;51.686;5.314;2023-04-03T15:27:47;11.30;99.90
13561;DHT22;6852;51.686;5.314;2023-04-03T15:30:17;11.30;99.90
13561;DHT22;6852;51.686;5.314;2023-04-03T15:32:44;11.50;99.90
13561;DHT22;6852;51.686;5.314;2023-04-03T15:35:12;11.30;99.90
13561;DHT22;6852;51.686;5.314;2023-04-03T15:37:38;11.40;99.90
13561;DHT22;6852;51.686;5.314;2023-04-03T15:40:06;10.90;99.90
13561;DHT22;6852;51.686;5.314;2023-04-03T15:42:33;10.80;99.90
13561;DHT22;6852;51.686;5.314;2023-04-03T15:45:01;10.90;99.90
13561;DHT22;6852;51.686;5.314;2023-04-03T15:47:28;10.80;99.90
13561;DHT22;6852;51.686;5.314;2023-04-03T15:49:56;10.90;99.90
13561;DHT22;6852;51.686;5.314;2023-04-03T15:52:22;10.80;99.90
13561;DHT22;6852;51.686;5.314;2023-04-03T15:54:49;10.60;99.90
13561;DHT22;6852;51.686;5.314;2023-04-03T15:57:16;10.70;99.90
13561;DHT22;6852;51.686;5.314;2023-04-03T15:59:43;10.50;99.90
13561;DHT22;6852;51.686;5.314;2023-04-03T16:02:12;10.50;99.90
13561;DHT22;6852;51.686;5.314;2023-04-03T16:04:40;10.50;99.90
13561;DHT22;6852;51.686;5.314;2023-04-03T16:07:07;10.30;99.90
13561;DHT22;6852;51.686;5.314;2023-04-03T16:09:35;10.30;99.90
13561;DHT22;6852;51.686;5.314;2023-04-03T16:12:03;10.20;99.90
13561;DHT22;6852;51.686;5.314;2023-04-03T16:14:30;10.10;99.90
13561;DHT22;6852;51.686;5.314;2023-04-03T16:16:58;10.10;99.90
13561;DHT22;6852;51.686;5.314;2023-04-03T16:19:28;10.10;99.90
13561;DHT22;6852;51.686;5.314;2023-04-03T16:21:56;10.00;99.90
13561;DHT22;6852;51.686;5.314;2023-04-03T16:24:23;10.30;99.90
13561;DHT22;6852;51.686;5.314;2023-04-03T16:26:50;10.40;99.90
13561;DHT22;6852;51.686;5.314;2023-04-03T16:29:17;10.20;99.90
13561;DHT22;6852;51.686;5.314;2023-04-03T16:31:44;10.20;99.90
13561;DHT22;6852;51.686;5.314;2023-04-03T16:34:11;9.80;99.90
13561;DHT22;6852;51.686;5.314;2023-04-03T16:36:38;9.80;99.90
13561;DHT22;6852;51.686;5.314;2023-04-03T16:39:05;10.00;99.90
13561;DHT22;6852;51.686;5.314;2023-04-03T16:41:32;9.80;99.90
13561;DHT22;6852;51.686;5.314;2023-04-03T16:43:59;9.80;99.90
13561;DHT22;6852;51.686;5.314;2023-04-03T16:46:26;9.60;99.90
13561;DHT22;6852;51.686;5.314;2023-04-03T16:48:53;9.60;99.90
13561;DHT22;6852;51.686;5.314;2023-04-03T16:51:20;9.70;99.90
13561;DHT22;6852;51.686;5.314;2023-04-03T16:53:47;9.80;99.90
13561;DHT22;6852;51.686;5.314;2023-04-03T16:56:14;9.60;99.90
13561;DHT22;6852;51.686;5.314;2023-04-03T16:58:41;9.60;99.90
13561;DHT22;6852;51.686;5.314;2023-04-03T17:01:13;9.60;99.90
13561;DHT22;6852;51.686;5.314;2023-04-03T17:03:40;9.60;99.90
13561;DHT22;6852;51.686;5.314;2023-04-03T17:06:07;9.80;99.90
13561;DHT22;6852;51.686;5.314;2023-04-03T17:08:34;9.80;99.90
13561;DHT22;6852;51.686;5.314;2023-04-03T17:11:01;9.70;99.90
13561;DHT22;6852;51.686;5.314;2023-04-03T17:13:28;9.60;99.90
13561;DHT22;6852;51.686;5.314;2023-04-03T17:15:58;9.40;99.90
13561;DHT22;6852;51.686;5.314;2023-04-03T17:18:26;9.40;99.90
13561;DHT22;6852;51.686;5.314;2023-04-03T17:20:55;9.60;99.90
13561;DHT22;6852;51.686;5.314;2023-04-03T17:23:24;9.40;99.90
13561;DHT22;6852;51.686;5.314;2023-04-03T17:25:52;9.20;99.90
13561;DHT22;6852;51.686;5.314;2023-04-03T17:28:25;9.00;99.90
13561;DHT22;6852;51.686;5.314;2023-04-03T17:30:55;9.10;99.90
13561;DHT22;6852;51.686;5.314;2023-04-03T17:33:22;9.00;99.90
13561;DHT22;6852;51.686;5.314;2023-04-03T17:35:49;9.00;99.90
13561;DHT22;6852;51.686;5.314;2023-04-03T17:38:17;8.90;99.90
13561;DHT22;6852;51.686;5.314;2023-04-03T17:40:44;8.70;99.90
13561;DHT22;6852;51.686;5.314;2023-04-03T17:43:11;8.80;99.90
13561;DHT22;6852;51.686;5.314;2023-04-03T17:45:38;8.90;99.90
13561;DHT22;6852;51.686;5.314;2023-04-03T17:48:05;8.90;99.90
13561;DHT22;6852;51.686;5.314;2023-04-03T17:50:32;8.80;99.90
13561;DHT22;6852;51.686;5.314;2023-04-03T17:52:59;8.60;99.90
13561;DHT22;6852;51.686;5.314;2023-04-03T17:55:26;8.50;99.90
13561;DHT22;6852;51.686;5.314;2023-04-03T17:57:53;8.60;99.90
13561;DHT22;6852;51.686;5.314;2023-04-03T18:00:20;8.60;99.90